createdAt,value
2018-12-16T00:01:35.225Z,22.60
2018-12-16T00:04:03.523Z,21.37
2018-12-16T00:06:31.652Z,23.70
2018-12-16T00:08:59.877Z,21.13
2018-12-16T00:11:28.018Z,22.43
2018-12-16T00:13:56.185Z,25.00
2018-12-16T00:16:24.460Z,22.53
2018-12-16T00:18:52.698Z,21.97
2018-12-16T00:21:20.845Z,22.67
2018-12-16T00:23:48.985Z,23.60
2018-12-16T00:26:17.143Z,24.93
2018-12-16T00:28:45.378Z,21.63
2018-12-16T00:31:13.674Z,24.30
2018-12-16T00:33:41.809Z,23.40
2018-12-16T00:36:10.029Z,23.13
2018-12-16T00:38:38.218Z,25.80
2018-12-16T00:41:06.377Z,23.03
2018-12-16T00:43:34.590Z,26.53
2018-12-16T00:46:02.755Z,21.77
2018-12-16T00:48:30.961Z,24.73
2018-12-16T00:50:59.193Z,26.17
2018-12-16T00:53:27.397Z,26.40
2018-12-16T00:55:55.550Z,27.43
2018-12-16T00:58:23.761Z,24.50
2018-12-16T01:00:51.994Z,23.57
2018-12-16T01:03:20.202Z,25.17
2018-12-16T01:05:48.374Z,26.37
2018-12-16T01:08:16.586Z,26.97
2018-12-16T01:10:44.881Z,27.77
2018-12-16T01:13:13.097Z,25.93
2018-12-16T01:15:41.241Z,28.03
2018-12-16T01:18:09.459Z,27.30
2018-12-16T01:20:37.757Z,25.93
2018-12-16T01:23:05.981Z,28.00
2018-12-16T01:25:34.203Z,26.20
2018-12-16T01:28:02.511Z,27.83
2018-12-16T01:30:30.746Z,29.57
2018-12-16T01:32:58.983Z,25.33
2018-12-16T01:35:27.114Z,25.27
2018-12-16T01:37:55.348Z,26.83
2018-12-16T01:40:23.574Z,29.07
2018-12-16T01:42:51.713Z,28.90
2018-12-16T01:45:19.996Z,26.53
2018-12-16T01:47:48.144Z,29.13
2018-12-16T01:50:16.342Z,28.57
2018-12-16T01:52:50.140Z,30.73
2018-12-16T01:55:14.868Z,25.07
2018-12-16T01:57:43.097Z,26.47
2018-12-16T02:00:11.405Z,27.80
2018-12-16T02:02:39.549Z,29.83
2018-12-16T02:05:07.845Z,27.80
2018-12-16T02:07:36.068Z,31.00
2018-12-16T02:10:04.981Z,28.13
2018-12-16T02:12:33.213Z,30.80
2018-12-16T02:15:01.365Z,28.47
2018-12-16T02:17:29.665Z,27.73
2018-12-16T02:19:57.877Z,27.03
2018-12-16T02:22:26.046Z,28.90
2018-12-16T02:24:54.257Z,26.83
2018-12-16T02:27:22.501Z,27.70
2018-12-16T02:29:50.704Z,27.73
2018-12-16T02:32:18.841Z,27.20
2018-12-16T02:34:47.046Z,29.33
2018-12-16T02:37:15.294Z,29.60
2018-12-16T02:39:43.442Z,27.97
2018-12-16T02:42:11.657Z,28.53
2018-12-16T02:44:39.867Z,30.53
2018-12-16T02:47:08.090Z,29.27
2018-12-16T02:49:37.394Z,28.60
2018-12-16T02:52:05.597Z,30.13
2018-12-16T02:54:33.753Z,28.80
2018-12-16T02:57:01.967Z,27.97
2018-12-16T02:59:30.174Z,28.27
2018-12-16T03:01:58.397Z,27.93
2018-12-16T03:04:27.397Z,27.90
2018-12-16T03:06:55.613Z,28.40
2018-12-16T03:09:23.819Z,26.87
2018-12-16T03:11:51.965Z,28.10
2018-12-16T03:14:20.125Z,29.50
2018-12-16T03:16:48.368Z,26.13
2018-12-16T03:19:16.505Z,29.77
2018-12-16T03:21:44.798Z,30.07
2018-12-16T03:24:12.947Z,27.50
2018-12-16T03:26:41.082Z,27.73
2018-12-16T03:29:09.369Z,27.57
2018-12-16T03:31:37.508Z,24.80
2018-12-16T03:34:05.878Z,29.90
2018-12-16T03:36:34.015Z,24.93
2018-12-16T03:39:02.237Z,25.57
2018-12-16T03:41:30.459Z,28.10
2018-12-16T03:43:58.678Z,24.00
2018-12-16T03:46:26.906Z,26.03
2018-12-16T03:48:55.062Z,24.70
2018-12-16T03:51:23.193Z,25.23
2018-12-16T03:53:51.333Z,24.67
2018-12-16T03:56:19.469Z,26.10
2018-12-16T03:58:59.056Z,27.13
2018-12-16T04:01:27.266Z,25.87
2018-12-16T04:03:55.427Z,23.70
2018-12-16T04:06:23.629Z,25.67
2018-12-16T04:08:51.849Z,27.03
2018-12-16T04:11:19.989Z,27.20
2018-12-16T04:13:48.154Z,26.77
2018-12-16T04:16:16.341Z,29.47
2018-12-16T04:18:44.590Z,24.47
2018-12-16T04:21:12.731Z,25.17
2018-12-16T04:23:40.894Z,28.67
2018-12-16T04:26:09.060Z,27.23
2018-12-16T04:28:37.262Z,27.00
2018-12-16T04:31:05.507Z,23.87
2018-12-16T04:33:33.732Z,24.70
2018-12-16T04:36:02.106Z,26.50
2018-12-16T04:38:30.256Z,23.20
2018-12-16T04:40:58.476Z,22.80
2018-12-16T04:43:26.718Z,22.57
2018-12-16T04:45:54.853Z,25.37
2018-12-16T04:48:23.060Z,23.10
2018-12-16T04:50:51.270Z,25.57
2018-12-16T04:53:19.474Z,25.10
2018-12-16T04:55:47.605Z,26.90
2018-12-16T04:58:15.749Z,23.07
2018-12-16T05:00:43.953Z,24.40
2018-12-16T05:03:12.088Z,21.97
2018-12-16T05:05:40.220Z,24.83
2018-12-16T05:08:08.496Z,19.63
2018-12-16T05:10:36.757Z,23.07
2018-12-16T05:13:04.917Z,20.40
2018-12-16T05:15:33.084Z,25.60
2018-12-16T05:18:01.226Z,19.33
2018-12-16T05:20:29.342Z,20.07
2018-12-16T05:22:57.566Z,20.10
2018-12-16T05:25:25.789Z,20.37
2018-12-16T05:27:53.932Z,21.53
2018-12-16T05:30:22.138Z,21.63
2018-12-16T05:32:50.272Z,19.03
2018-12-16T05:35:18.472Z,19.77
2018-12-16T05:37:46.682Z,18.90
2018-12-16T05:40:14.821Z,20.80
2018-12-16T05:42:42.963Z,19.67
2018-12-16T05:45:11.197Z,19.83
2018-12-16T05:47:39.327Z,21.50
2018-12-16T05:50:07.984Z,17.30
2018-12-16T05:52:36.122Z,19.03
2018-12-16T05:55:05.018Z,19.37
2018-12-16T05:57:33.157Z,19.37
2018-12-16T06:00:01.305Z,19.53
2018-12-16T06:02:29.507Z,18.17
2018-12-16T06:04:57.656Z,17.23
2018-12-16T06:07:25.778Z,18.87
2018-12-16T06:09:53.987Z,19.27
2018-12-16T06:12:22.194Z,18.93
2018-12-16T06:14:50.404Z,19.30
2018-12-16T06:17:18.624Z,16.10
2018-12-16T06:19:46.781Z,18.00
2018-12-16T06:22:14.909Z,17.57
2018-12-16T06:24:43.121Z,16.63
2018-12-16T06:27:11.397Z,19.37
2018-12-16T06:29:40.910Z,17.03
2018-12-16T06:32:09.111Z,17.20
2018-12-16T06:34:37.329Z,14.37
2018-12-16T06:37:05.469Z,16.00
2018-12-16T06:39:33.623Z,16.67
2018-12-16T06:42:01.762Z,16.27
2018-12-16T06:44:29.985Z,16.90
2018-12-16T06:46:58.132Z,17.63
2018-12-16T06:49:26.406Z,17.17
2018-12-16T06:51:54.534Z,16.50
2018-12-16T06:54:23.865Z,16.30
2018-12-16T06:56:51.994Z,17.33
2018-12-16T06:59:20.151Z,14.93
2018-12-16T07:01:48.364Z,16.57
2018-12-16T07:04:16.559Z,17.63
2018-12-16T07:06:44.807Z,17.57
2018-12-16T07:09:13.021Z,16.73
2018-12-16T07:11:41.241Z,17.00
2018-12-16T07:14:09.565Z,16.90
2018-12-16T07:16:37.781Z,16.93
2018-12-16T07:19:06.009Z,16.07
2018-12-16T07:21:34.322Z,16.13
2018-12-16T07:24:08.985Z,19.40
2018-12-16T07:26:32.688Z,16.53
2018-12-16T07:29:00.887Z,15.83
2018-12-16T07:31:29.194Z,19.93
2018-12-16T07:33:57.334Z,18.60
2018-12-16T07:36:25.496Z,17.77
2018-12-16T07:38:53.792Z,19.10
2018-12-16T07:41:21.994Z,17.20
2018-12-16T07:43:50.215Z,20.63
2018-12-16T07:46:18.652Z,18.77
2018-12-16T07:48:47.175Z,17.70
2018-12-16T07:51:15.651Z,19.03
2018-12-16T07:53:43.926Z,17.20
2018-12-16T07:56:12.077Z,19.20
2018-12-16T07:58:40.303Z,18.20
2018-12-16T08:01:08.626Z,20.00
2018-12-16T08:03:36.841Z,18.33
2018-12-16T08:06:05.161Z,20.83
2018-12-16T08:08:33.452Z,20.93
2018-12-16T08:11:01.689Z,20.23
2018-12-16T08:13:29.910Z,17.10
2018-12-16T08:15:58.064Z,16.37
2018-12-16T08:18:26.200Z,18.77
2018-12-16T08:20:54.352Z,19.73
2018-12-16T08:23:22.502Z,18.87
2018-12-16T08:25:50.640Z,16.73
2018-12-16T08:28:18.930Z,20.00
2018-12-16T08:30:47.068Z,19.13
2018-12-16T08:33:15.199Z,18.30
2018-12-16T08:35:43.343Z,19.33
2018-12-16T08:38:11.785Z,15.93
2018-12-16T08:40:40.125Z,19.60
2018-12-16T08:43:08.424Z,19.60
2018-12-16T08:45:36.631Z,16.90
2018-12-16T08:48:04.833Z,17.47
2018-12-16T08:50:33.051Z,18.37
2018-12-16T08:53:01.221Z,16.77
2018-12-16T08:55:29.506Z,19.90
2018-12-16T08:57:57.629Z,18.60
2018-12-16T09:00:25.770Z,17.70
2018-12-16T09:02:53.891Z,20.30
2018-12-16T09:05:22.114Z,20.43
2018-12-16T09:07:50.388Z,19.30
2018-12-16T09:10:18.634Z,17.37
2018-12-16T09:12:46.801Z,18.77
2018-12-16T09:15:14.943Z,17.40
2018-12-16T09:17:43.162Z,21.03
2018-12-16T09:20:11.453Z,19.57
2018-12-16T09:22:40.123Z,20.50
2018-12-16T09:25:08.437Z,17.93
2018-12-16T09:27:36.703Z,19.97
2018-12-16T09:30:07.756Z,17.37
2018-12-16T09:32:35.975Z,19.60
2018-12-16T09:35:04.345Z,18.33
2018-12-16T09:37:32.549Z,20.57
2018-12-16T09:40:00.673Z,18.80
2018-12-16T09:42:30.948Z,20.83
2018-12-16T09:45:00.984Z,19.40
2018-12-16T09:47:30.807Z,21.30
2018-12-16T09:50:00.637Z,19.33
2018-12-16T09:52:30.309Z,18.20
2018-12-16T09:54:59.967Z,23.37
2018-12-16T09:57:29.772Z,21.47
2018-12-16T09:59:59.772Z,19.87
2018-12-16T10:02:28.490Z,22.80
2018-12-16T10:04:58.351Z,25.77
2018-12-16T10:07:28.180Z,21.50
2018-12-16T10:09:57.252Z,22.30
2018-12-16T11:12:42.916Z,32.97
2018-12-16T11:15:12.693Z,31.53
2018-12-16T11:18:44.066Z,30.67
2018-12-16T11:35:54.423Z,30.90
2018-12-16T11:38:22.670Z,36.30
2018-12-16T11:40:50.954Z,32.20
2018-12-16T11:43:19.217Z,34.33
2018-12-16T11:45:47.353Z,33.47
2018-12-16T11:48:15.641Z,31.73
2018-12-16T11:50:43.937Z,32.90
2018-12-16T11:53:12.181Z,34.67
2018-12-16T11:55:40.625Z,31.67
2018-12-16T11:58:08.803Z,37.87
2018-12-16T12:00:37.004Z,33.50
2018-12-16T12:03:05.162Z,33.20
2018-12-16T12:05:33.289Z,29.10
2018-12-16T12:08:01.446Z,32.67
2018-12-16T12:10:29.741Z,35.03
2018-12-16T12:12:57.904Z,34.07
2018-12-16T12:15:26.113Z,30.90
2018-12-16T12:17:54.283Z,29.50
2018-12-16T12:20:22.456Z,32.87
2018-12-16T12:22:50.690Z,32.73
2018-12-16T12:25:20.035Z,30.80
2018-12-16T12:27:48.508Z,31.93
2018-12-16T12:30:16.758Z,32.77
2018-12-16T12:32:48.986Z,32.33
2018-12-16T12:35:15.417Z,30.70
2018-12-16T12:37:43.575Z,33.60
2018-12-16T12:40:11.809Z,31.87
2018-12-16T12:42:40.022Z,30.27
2018-12-16T12:45:08.370Z,28.67
2018-12-16T12:47:36.547Z,32.00
2018-12-16T12:50:05.694Z,31.80
2018-12-16T12:52:33.855Z,32.37
2018-12-16T12:55:02.017Z,30.83
2018-12-16T12:57:30.218Z,32.80
2018-12-16T12:59:58.780Z,32.50
2018-12-16T13:02:26.990Z,29.83
2018-12-16T13:04:55.153Z,32.13
2018-12-16T13:07:23.316Z,30.87
2018-12-16T13:09:51.498Z,32.93
2018-12-16T13:12:19.702Z,33.60
2018-12-16T13:14:47.953Z,31.40
2018-12-16T13:17:16.109Z,30.57
2018-12-16T13:19:44.274Z,30.37
2018-12-16T13:22:12.486Z,34.03
2018-12-16T13:24:51.938Z,32.47
2018-12-16T13:27:20.088Z,31.27
2018-12-16T13:29:48.338Z,34.10
2018-12-16T13:32:16.475Z,29.83
2018-12-16T13:34:45.373Z,33.13
2018-12-16T13:37:13.519Z,31.00
2018-12-16T13:39:41.713Z,27.93
2018-12-16T13:42:09.892Z,32.20
2018-12-16T13:44:38.021Z,32.70
2018-12-16T13:47:06.208Z,30.40
2018-12-16T13:49:34.437Z,34.07
2018-12-16T13:52:02.740Z,31.67
2018-12-16T13:54:30.949Z,32.77
2018-12-16T13:56:59.118Z,33.57
2018-12-16T13:59:27.264Z,33.90
2018-12-16T14:01:55.469Z,32.20
2018-12-16T14:04:23.624Z,33.60
2018-12-16T14:06:51.841Z,33.73
2018-12-16T14:09:20.076Z,32.40
2018-12-16T14:11:48.373Z,33.30
2018-12-16T14:14:16.530Z,32.87
2018-12-16T14:16:44.707Z,30.77
2018-12-16T14:19:13.005Z,36.47
2018-12-16T14:21:41.186Z,33.83
2018-12-16T14:24:11.582Z,32.70
2018-12-16T14:26:39.830Z,36.10
2018-12-16T14:29:10.037Z,35.90
2018-12-16T14:31:38.325Z,36.20
2018-12-16T14:34:06.472Z,33.43
2018-12-16T14:36:34.644Z,33.47
2018-12-16T14:39:03.550Z,32.77
2018-12-16T14:41:31.773Z,31.57
2018-12-16T14:43:59.926Z,31.00
2018-12-16T14:46:28.142Z,37.87
2018-12-16T14:48:56.305Z,33.87
2018-12-16T14:51:24.471Z,33.97
2018-12-16T14:53:52.682Z,35.40
2018-12-16T14:56:20.822Z,33.77
2018-12-16T14:58:48.954Z,31.20
2018-12-16T15:01:17.202Z,33.07
2018-12-16T15:03:45.403Z,37.33
2018-12-16T15:06:15.088Z,32.60
2018-12-16T15:08:43.291Z,33.97
2018-12-16T15:11:11.615Z,35.03
2018-12-16T15:13:39.845Z,32.83
2018-12-16T15:16:08.003Z,35.50
2018-12-16T15:18:36.130Z,36.53
2018-12-16T15:21:04.345Z,31.97
2018-12-16T15:23:32.494Z,32.30
2018-12-16T15:26:02.189Z,33.63
2018-12-16T15:28:30.612Z,34.40
2018-12-16T15:30:58.766Z,33.20
2018-12-16T15:33:30.321Z,37.57
2018-12-16T15:35:58.591Z,35.00
2018-12-16T15:38:27.914Z,32.80
2018-12-16T15:40:56.170Z,34.97
2018-12-16T15:43:26.437Z,38.43
2018-12-16T15:45:55.737Z,35.83
2018-12-16T15:48:25.018Z,33.83
2018-12-16T15:50:58.202Z,34.90
2018-12-16T15:53:27.393Z,30.87
2018-12-16T15:55:55.672Z,36.20
2018-12-16T15:58:23.809Z,33.33
2018-12-16T16:00:52.138Z,35.50
2018-12-16T16:03:20.294Z,35.23
2018-12-16T16:05:48.461Z,32.60
2018-12-16T16:08:16.711Z,36.87
2018-12-16T16:10:45.041Z,37.20
2018-12-16T16:13:13.308Z,35.47
2018-12-16T16:15:41.567Z,36.97
2018-12-16T16:18:09.774Z,35.93
2018-12-16T16:20:38.008Z,33.43
2018-12-16T16:23:06.886Z,33.20
2018-12-16T16:25:35.985Z,34.83
2018-12-16T16:28:04.276Z,34.53
2018-12-16T16:30:32.562Z,37.77
2018-12-16T16:33:00.712Z,35.37
2018-12-16T16:35:28.861Z,34.60
2018-12-16T16:38:00.883Z,31.90
2018-12-16T16:40:28.054Z,34.40
2018-12-16T16:42:56.375Z,31.67
2018-12-16T16:45:24.703Z,35.67
2018-12-16T16:47:52.928Z,33.70
2018-12-16T16:50:21.258Z,36.70
2018-12-16T16:52:49.537Z,33.47
2018-12-16T16:55:18.742Z,35.63
2018-12-16T16:57:46.972Z,36.90
2018-12-16T17:00:16.439Z,34.13
2018-12-16T17:02:44.768Z,34.10
2018-12-16T17:05:13.068Z,33.17
2018-12-16T17:07:41.358Z,31.90
2018-12-16T17:10:09.621Z,32.30
2018-12-16T17:12:37.944Z,34.63
2018-12-16T17:15:07.319Z,32.67
2018-12-16T17:17:35.662Z,37.17
2018-12-16T17:20:04.821Z,32.60
2018-12-16T17:22:34.086Z,36.27
2018-12-16T17:25:02.425Z,37.30
2018-12-16T17:27:30.713Z,34.47
2018-12-16T17:29:58.924Z,35.30
2018-12-16T17:32:27.501Z,36.23
2018-12-16T17:34:57.487Z,36.13
2018-12-16T17:37:25.778Z,33.70
2018-12-16T17:39:56.077Z,34.70
2018-12-16T17:42:25.070Z,31.10
2018-12-16T17:44:57.756Z,34.60
2018-12-16T17:47:26.966Z,36.83
2018-12-16T17:49:55.809Z,35.70
2018-12-16T17:52:25.156Z,36.07
2018-12-16T17:54:54.021Z,34.97
2018-12-16T17:57:22.736Z,40.03
2018-12-16T17:59:51.881Z,38.33
2018-12-16T18:02:20.471Z,36.70
2018-12-16T18:04:50.469Z,35.60
2018-12-16T18:07:26.313Z,36.13
2018-12-16T18:09:58.483Z,41.13
2018-12-16T18:12:27.823Z,39.70
2018-12-16T18:14:57.220Z,37.67
2018-12-16T18:17:26.145Z,36.43
2018-12-16T18:19:55.785Z,34.70
2018-12-16T18:22:24.473Z,37.33
2018-12-16T18:24:57.244Z,34.03
2018-12-16T18:27:26.798Z,38.37
2018-12-16T18:29:56.146Z,38.07
2018-12-16T18:32:25.655Z,37.60
2018-12-16T18:34:55.237Z,37.57
2018-12-16T18:37:23.699Z,40.50
2018-12-16T18:39:53.117Z,37.57
2018-12-16T18:42:21.565Z,40.07
2018-12-16T18:44:50.730Z,40.57
2018-12-16T18:47:20.149Z,44.53
2018-12-16T18:49:49.521Z,40.87
2018-12-16T18:52:21.182Z,41.93
2018-12-16T18:54:49.496Z,44.77
2018-12-16T18:57:18.965Z,40.73
2018-12-16T18:59:48.193Z,43.83
2018-12-16T19:02:16.370Z,46.97
2018-12-16T19:04:46.103Z,43.40
2018-12-16T19:10:09.446Z,46.33
2018-12-16T19:12:39.818Z,52.03
2018-12-16T19:15:10.428Z,48.90
2018-12-16T19:17:39.767Z,46.33
2018-12-16T19:20:08.144Z,48.93
2018-12-16T19:22:37.515Z,49.10
2018-12-16T19:25:06.114Z,50.60
2018-12-16T19:27:35.481Z,47.57
2018-12-16T19:30:06.806Z,43.80
2018-12-16T19:32:35.214Z,49.33
2018-12-16T19:35:03.729Z,49.23
2018-12-16T19:37:33.165Z,47.70
2018-12-16T19:40:01.453Z,47.30
2018-12-16T19:42:29.737Z,50.27
2018-12-16T19:44:57.997Z,47.23
2018-12-16T19:47:26.260Z,52.23
2018-12-16T19:49:55.589Z,49.17
2018-12-16T19:52:24.054Z,46.63
2018-12-16T19:54:54.008Z,52.40
2018-12-16T19:57:22.350Z,53.87
2018-12-16T19:59:50.606Z,50.70
2018-12-16T20:02:19.065Z,53.87
2018-12-16T20:04:51.789Z,53.40
2018-12-16T20:07:20.261Z,52.13
2018-12-16T20:09:53.137Z,57.03
2018-12-16T20:12:24.965Z,53.37
2018-12-16T20:14:54.293Z,56.03
2018-12-16T20:17:26.307Z,51.57
2018-12-16T20:19:54.482Z,51.93
2018-12-16T20:22:22.870Z,55.53
2018-12-16T20:24:52.280Z,53.33
2018-12-16T20:27:20.545Z,56.87
2018-12-16T20:29:48.789Z,52.07
2018-12-16T20:32:17.125Z,60.90
2018-12-16T20:34:45.373Z,57.27
2018-12-16T20:37:19.753Z,52.03
2018-12-16T20:39:48.038Z,56.67
2018-12-16T20:42:16.418Z,55.63
2018-12-16T20:44:45.655Z,57.07
2018-12-16T20:47:16.405Z,57.27
2018-12-16T20:49:50.869Z,58.73
2018-12-16T20:52:28.260Z,65.13
2018-12-16T20:54:59.628Z,53.77
2018-12-16T20:57:30.608Z,54.77
2018-12-16T21:00:04.631Z,54.97
2018-12-16T21:02:37.956Z,51.40
2018-12-16T21:05:12.004Z,51.07
2018-12-16T21:07:42.991Z,51.83
2018-12-16T21:10:11.790Z,46.27
2018-12-16T21:12:45.932Z,55.17
2018-12-16T21:17:25.746Z,46.87
2018-12-16T21:19:54.600Z,49.93
2018-12-16T21:22:24.724Z,53.60
2018-12-16T21:24:56.435Z,51.73
2018-12-16T21:27:26.126Z,54.47
2018-12-16T21:29:55.418Z,54.37
2018-12-16T21:32:26.303Z,61.33
2018-12-16T21:34:57.687Z,56.10
2018-12-16T21:37:26.592Z,57.30
2018-12-16T21:39:55.644Z,57.60
2018-12-16T21:42:24.502Z,59.17
2018-12-16T21:44:55.634Z,64.27
2018-12-16T21:47:26.461Z,58.77
2018-12-16T21:49:57.562Z,64.27
2018-12-16T21:52:27.365Z,62.30
2018-12-16T21:54:56.579Z,66.83
2018-12-16T21:57:25.412Z,64.00
2018-12-16T21:59:56.238Z,64.37
2018-12-16T22:02:24.928Z,73.57
2018-12-16T22:04:53.719Z,72.93
2018-12-16T22:07:23.032Z,75.77
2018-12-16T22:09:53.866Z,75.57
2018-12-16T22:12:22.802Z,75.77
2018-12-16T22:14:53.499Z,76.63
2018-12-16T22:17:22.062Z,80.07
2018-12-16T22:19:52.077Z,78.60
2018-12-16T22:22:20.978Z,76.53
2018-12-16T22:24:50.975Z,75.17
2018-12-16T22:27:20.030Z,85.60
2018-12-16T22:29:48.829Z,82.80
2018-12-16T22:32:18.645Z,79.27
2018-12-16T22:34:49.457Z,78.60
2018-12-16T22:37:18.597Z,76.87
2018-12-16T22:39:49.645Z,81.27
2018-12-16T22:42:22.986Z,87.73
2018-12-16T22:44:51.731Z,87.37
2018-12-16T22:47:20.415Z,90.33
2018-12-16T22:49:49.313Z,84.77
2018-12-16T22:52:18.686Z,80.67
2018-12-16T22:54:47.529Z,89.37
2018-12-16T22:57:16.282Z,93.00
2018-12-16T22:59:44.910Z,84.90
2018-12-16T23:02:13.658Z,88.67
2018-12-16T23:04:42.736Z,91.07
2018-12-16T23:07:11.391Z,91.90
2018-12-16T23:09:40.097Z,89.33
2018-12-16T23:12:08.774Z,91.00
2018-12-16T23:14:37.472Z,93.30
2018-12-16T23:17:06.387Z,83.83
2018-12-16T23:19:35.291Z,93.03
2018-12-16T23:22:04.275Z,86.27
2018-12-16T23:24:33.431Z,95.20
2018-12-16T23:27:02.173Z,97.30
2018-12-16T23:29:30.922Z,94.37
2018-12-16T23:31:59.919Z,92.00
2018-12-16T23:34:28.758Z,92.97
2018-12-16T23:36:57.453Z,92.53
2018-12-16T23:39:26.353Z,92.43
2018-12-16T23:41:55.178Z,96.93
2018-12-16T23:44:25.209Z,99.60
2018-12-16T23:46:53.949Z,91.73
2018-12-16T23:49:22.539Z,98.77
2018-12-16T23:51:51.223Z,93.27
2018-12-16T23:54:20.074Z,86.90
2018-12-16T23:56:48.768Z,100.67
2018-12-16T23:59:18.235Z,89.00
